sensor_id;sensor_type;location;lat;lon;timestamp;P1;durP1;ratioP1;P2;durP2;ratioP2
58528;SDS011;44322;52.968;5.816;2022-09-02T00:01:19;2.53;;;2.20;;
58528;SDS011;44322;52.968;5.816;2022-09-02T00:03:57;2.72;;;2.00;;
58528;SDS011;44322;52.968;5.816;2022-09-02T00:06:26;3.25;;;2.10;;
58528;SDS011;44322;52.968;5.816;2022-09-02T00:08:53;2.38;;;1.70;;
58528;SDS011;44322;52.968;5.816;2022-09-02T00:11:21;2.80;;;1.85;;
58528;SDS011;44322;52.968;5.816;2022-09-02T00:13:49;3.58;;;2.15;;
58528;SDS011;44322;52.968;5.816;2022-09-02T00:16:15;2.28;;;1.60;;
58528;SDS011;44322;52.968;5.816;2022-09-02T00:18:42;3.05;;;1.80;;
58528;SDS011;44322;52.968;5.816;2022-09-02T00:21:09;2.38;;;1.60;;
58528;SDS011;44322;52.968;5.816;2022-09-02T00:23:40;4.80;;;1.60;;
58528;SDS011;44322;52.968;5.816;2022-09-02T00:28:34;2.42;;;1.63;;
58528;SDS011;44322;52.968;5.816;2022-09-02T00:31:00;2.10;;;1.80;;
58528;SDS011;44322;52.968;5.816;2022-09-02T00:33:30;2.75;;;1.75;;
58528;SDS011;44322;52.968;5.816;2022-09-02T00:35:59;2.13;;;1.65;;
58528;SDS011;44322;52.968;5.816;2022-09-02T00:38:27;4.72;;;2.13;;
58528;SDS011;44322;52.968;5.816;2022-09-02T00:40:55;1.70;;;1.60;;
58528;SDS011;44322;52.968;5.816;2022-09-02T00:43:22;1.80;;;1.70;;
58528;SDS011;44322;52.968;5.816;2022-09-02T00:46:04;3.28;;;1.90;;
58528;SDS011;44322;52.968;5.816;2022-09-02T00:48:30;2.83;;;1.80;;
58528;SDS011;44322;52.968;5.816;2022-09-02T00:50:56;2.30;;;1.75;;
58528;SDS011;44322;52.968;5.816;2022-09-02T00:53:22;2.03;;;1.83;;
58528;SDS011;44322;52.968;5.816;2022-09-02T00:55:50;2.17;;;1.73;;
58528;SDS011;44322;52.968;5.816;2022-09-02T00:58:18;3.00;;;2.03;;
58528;SDS011;44322;52.968;5.816;2022-09-02T01:00:49;2.60;;;2.08;;
58528;SDS011;44322;52.968;5.816;2022-09-02T01:03:18;2.63;;;1.70;;
58528;SDS011;44322;52.968;5.816;2022-09-02T01:05:46;2.75;;;1.88;;
58528;SDS011;44322;52.968;5.816;2022-09-02T01:08:15;2.30;;;2.00;;
58528;SDS011;44322;52.968;5.816;2022-09-02T01:10:50;3.30;;;2.05;;
58528;SDS011;44322;52.968;5.816;2022-09-02T01:13:20;2.40;;;1.80;;
58528;SDS011;44322;52.968;5.816;2022-09-02T01:15:52;2.00;;;1.90;;
58528;SDS011;44322;52.968;5.816;2022-09-02T01:18:46;2.00;;;1.65;;
58528;SDS011;44322;52.968;5.816;2022-09-02T01:21:14;2.58;;;1.95;;
58528;SDS011;44322;52.968;5.816;2022-09-02T01:23:40;3.33;;;2.10;;
58528;SDS011;44322;52.968;5.816;2022-09-02T01:26:06;3.42;;;2.00;;
58528;SDS011;44322;52.968;5.816;2022-09-02T01:28:32;2.08;;;1.80;;
58528;SDS011;44322;52.968;5.816;2022-09-02T01:30:59;1.92;;;1.80;;
58528;SDS011;44322;52.968;5.816;2022-09-02T01:33:25;3.08;;;1.90;;
58528;SDS011;44322;52.968;5.816;2022-09-02T01:35:52;2.60;;;1.90;;
58528;SDS011;44322;52.968;5.816;2022-09-02T01:38:19;2.53;;;1.92;;
58528;SDS011;44322;52.968;5.816;2022-09-02T01:40:46;1.83;;;1.70;;
58528;SDS011;44322;52.968;5.816;2022-09-02T01:43:14;2.75;;;2.08;;
58528;SDS011;44322;52.968;5.816;2022-09-02T01:45:46;3.10;;;2.00;;
58528;SDS011;44322;52.968;5.816;2022-09-02T01:50:41;3.08;;;1.48;;
58528;SDS011;44322;52.968;5.816;2022-09-02T01:53:09;2.78;;;2.00;;
58528;SDS011;44322;52.968;5.816;2022-09-02T01:55:35;2.95;;;2.00;;
58528;SDS011;44322;52.968;5.816;2022-09-02T01:58:01;2.67;;;2.03;;
58528;SDS011;44322;52.968;5.816;2022-09-02T02:00:27;2.22;;;1.85;;
58528;SDS011;44322;52.968;5.816;2022-09-02T02:02:53;4.45;;;2.08;;
58528;SDS011;44322;52.968;5.816;2022-09-02T02:05:19;2.28;;;1.80;;
58528;SDS011;44322;52.968;5.816;2022-09-02T02:07:48;3.70;;;2.13;;
58528;SDS011;44322;52.968;5.816;2022-09-02T02:10:15;2.67;;;2.08;;
58528;SDS011;44322;52.968;5.816;2022-09-02T02:12:43;2.25;;;1.88;;
58528;SDS011;44322;52.968;5.816;2022-09-02T02:15:13;2.92;;;2.13;;
58528;SDS011;44322;52.968;5.816;2022-09-02T02:17:41;2.65;;;2.00;;
58528;SDS011;44322;52.968;5.816;2022-09-02T02:20:07;2.58;;;1.75;;
58528;SDS011;44322;52.968;5.816;2022-09-02T02:22:35;2.75;;;2.00;;
58528;SDS011;44322;52.968;5.816;2022-09-02T02:25:02;3.97;;;2.00;;
58528;SDS011;44322;52.968;5.816;2022-09-02T02:27:30;3.55;;;1.70;;
58528;SDS011;44322;52.968;5.816;2022-09-02T02:29:59;1.98;;;1.77;;
58528;SDS011;44322;52.968;5.816;2022-09-02T02:32:26;5.70;;;2.58;;
58528;SDS011;44322;52.968;5.816;2022-09-02T02:34:52;3.45;;;2.40;;
58528;SDS011;44322;52.968;5.816;2022-09-02T02:37:18;2.20;;;2.00;;
58528;SDS011;44322;52.968;5.816;2022-09-02T02:39:46;4.20;;;2.20;;
58528;SDS011;44322;52.968;5.816;2022-09-02T02:42:11;2.15;;;1.95;;
58528;SDS011;44322;52.968;5.816;2022-09-02T02:44:41;2.95;;;2.28;;
58528;SDS011;44322;52.968;5.816;2022-09-02T02:47:07;2.90;;;2.10;;
58528;SDS011;44322;52.968;5.816;2022-09-02T02:49:37;4.28;;;2.28;;
58528;SDS011;44322;52.968;5.816;2022-09-02T02:52:05;2.20;;;2.00;;
58528;SDS011;44322;52.968;5.816;2022-09-02T02:54:32;3.25;;;2.10;;
58528;SDS011;44322;52.968;5.816;2022-09-02T02:56:59;2.53;;;2.25;;
58528;SDS011;44322;52.968;5.816;2022-09-02T02:59:25;2.80;;;1.90;;
58528;SDS011;44322;52.968;5.816;2022-09-02T03:01:51;2.40;;;2.00;;
58528;SDS011;44322;52.968;5.816;2022-09-02T03:04:17;2.58;;;2.00;;
58528;SDS011;44322;52.968;5.816;2022-09-02T03:06:43;2.13;;;1.88;;
58528;SDS011;44322;52.968;5.816;2022-09-02T03:09:10;2.28;;;2.08;;
58528;SDS011;44322;52.968;5.816;2022-09-02T03:11:36;2.13;;;1.80;;
58528;SDS011;44322;52.968;5.816;2022-09-02T03:14:02;2.13;;;1.92;;
58528;SDS011;44322;52.968;5.816;2022-09-02T03:16:33;4.47;;;2.25;;
58528;SDS011;44322;52.968;5.816;2022-09-02T03:18:59;2.28;;;1.70;;
58528;SDS011;44322;52.968;5.816;2022-09-02T03:23:54;2.00;;;1.80;;
58528;SDS011;44322;52.968;5.816;2022-09-02T03:26:21;2.05;;;1.83;;
58528;SDS011;44322;52.968;5.816;2022-09-02T03:28:48;4.38;;;2.10;;
58528;SDS011;44322;52.968;5.816;2022-09-02T03:31:20;2.22;;;1.73;;
58528;SDS011;44322;52.968;5.816;2022-09-02T03:33:48;2.00;;;1.80;;
58528;SDS011;44322;52.968;5.816;2022-09-02T03:36:30;2.78;;;1.60;;
58528;SDS011;44322;52.968;5.816;2022-09-02T03:38:59;2.90;;;2.20;;
58528;SDS011;44322;52.968;5.816;2022-09-02T03:41:27;3.92;;;2.15;;
58528;SDS011;44322;52.968;5.816;2022-09-02T03:43:54;3.03;;;2.15;;
58528;SDS011;44322;52.968;5.816;2022-09-02T03:46:20;3.60;;;2.30;;
58528;SDS011;44322;52.968;5.816;2022-09-02T03:48:47;3.47;;;2.40;;
58528;SDS011;44322;52.968;5.816;2022-09-02T03:51:19;2.05;;;1.90;;
58528;SDS011;44322;52.968;5.816;2022-09-02T03:53:46;2.28;;;1.88;;
58528;SDS011;44322;52.968;5.816;2022-09-02T03:56:14;4.65;;;2.20;;
58528;SDS011;44322;52.968;5.816;2022-09-02T03:58:42;2.47;;;2.20;;
58528;SDS011;44322;52.968;5.816;2022-09-02T04:01:16;5.00;;;2.47;;
58528;SDS011;44322;52.968;5.816;2022-09-02T04:03:44;2.17;;;1.90;;
58528;SDS011;44322;52.968;5.816;2022-09-02T04:06:11;2.85;;;2.30;;
58528;SDS011;44322;52.968;5.816;2022-09-02T04:08:42;2.58;;;2.03;;
58528;SDS011;44322;52.968;5.816;2022-09-02T04:11:10;2.28;;;2.08;;
58528;SDS011;44322;52.968;5.816;2022-09-02T04:13:39;4.18;;;2.20;;
58528;SDS011;44322;52.968;5.816;2022-09-02T04:16:09;1.92;;;1.83;;
58528;SDS011;44322;52.968;5.816;2022-09-02T04:18:41;2.20;;;2.00;;
58528;SDS011;44322;52.968;5.816;2022-09-02T04:21:09;2.22;;;1.90;;
58528;SDS011;44322;52.968;5.816;2022-09-02T04:23:37;3.20;;;2.35;;
58528;SDS011;44322;52.968;5.816;2022-09-02T04:26:05;4.00;;;2.40;;
58528;SDS011;44322;52.968;5.816;2022-09-02T04:28:33;2.88;;;2.08;;
58528;SDS011;44322;52.968;5.816;2022-09-02T04:30:58;2.90;;;2.20;;
58528;SDS011;44322;52.968;5.816;2022-09-02T04:33:28;3.97;;;2.20;;
58528;SDS011;44322;52.968;5.816;2022-09-02T04:35:55;2.22;;;2.03;;
58528;SDS011;44322;52.968;5.816;2022-09-02T04:38:21;4.18;;;2.42;;
58528;SDS011;44322;52.968;5.816;2022-09-02T04:40:47;3.70;;;2.55;;
58528;SDS011;44322;52.968;5.816;2022-09-02T04:43:15;3.70;;;2.30;;
58528;SDS011;44322;52.968;5.816;2022-09-02T04:45:42;3.60;;;2.33;;
58528;SDS011;44322;52.968;5.816;2022-09-02T04:48:11;2.80;;;2.20;;
58528;SDS011;44322;52.968;5.816;2022-09-02T04:53:07;2.60;;;2.33;;
58528;SDS011;44322;52.968;5.816;2022-09-02T04:55:33;3.40;;;2.70;;
58528;SDS011;44322;52.968;5.816;2022-09-02T04:58:00;2.60;;;2.40;;
58528;SDS011;44322;52.968;5.816;2022-09-02T05:00:26;2.58;;;2.38;;
58528;SDS011;44322;52.968;5.816;2022-09-02T05:02:53;2.47;;;2.28;;
58528;SDS011;44322;52.968;5.816;2022-09-02T05:05:21;2.97;;;2.25;;
58528;SDS011;44322;52.968;5.816;2022-09-02T05:07:47;2.97;;;2.35;;
58528;SDS011;44322;52.968;5.816;2022-09-02T05:10:14;2.92;;;2.30;;
58528;SDS011;44322;52.968;5.816;2022-09-02T05:12:42;4.40;;;2.53;;
58528;SDS011;44322;52.968;5.816;2022-09-02T05:15:09;2.35;;;2.15;;
58528;SDS011;44322;52.968;5.816;2022-09-02T05:20:04;3.97;;;2.40;;
58528;SDS011;44322;52.968;5.816;2022-09-02T05:22:32;3.30;;;2.50;;
58528;SDS011;44322;52.968;5.816;2022-09-02T05:25:01;4.30;;;2.70;;
58528;SDS011;44322;52.968;5.816;2022-09-02T05:27:28;5.90;;;2.85;;
58528;SDS011;44322;52.968;5.816;2022-09-02T05:29:55;5.90;;;2.77;;
58528;SDS011;44322;52.968;5.816;2022-09-02T05:32:24;2.85;;;2.40;;
58528;SDS011;44322;52.968;5.816;2022-09-02T05:34:51;2.58;;;2.38;;
58528;SDS011;44322;52.968;5.816;2022-09-02T05:37:17;2.95;;;2.35;;
58528;SDS011;44322;52.968;5.816;2022-09-02T05:39:43;2.30;;;2.10;;
58528;SDS011;44322;52.968;5.816;2022-09-02T05:42:09;2.85;;;2.60;;
58528;SDS011;44322;52.968;5.816;2022-09-02T05:44:35;5.05;;;2.30;;
58528;SDS011;44322;52.968;5.816;2022-09-02T05:49:29;4.22;;;2.75;;
58528;SDS011;44322;52.968;5.816;2022-09-02T05:52:00;2.53;;;2.33;;
58528;SDS011;44322;52.968;5.816;2022-09-02T05:54:37;3.15;;;2.13;;
58528;SDS011;44322;52.968;5.816;2022-09-02T05:57:08;2.30;;;2.10;;
58528;SDS011;44322;52.968;5.816;2022-09-02T05:59:41;4.55;;;2.55;;
58528;SDS011;44322;52.968;5.816;2022-09-02T06:02:12;3.03;;;2.35;;
58528;SDS011;44322;52.968;5.816;2022-09-02T06:04:39;4.03;;;2.27;;
58528;SDS011;44322;52.968;5.816;2022-09-02T06:07:08;3.78;;;2.05;;
58528;SDS011;44322;52.968;5.816;2022-09-02T06:09:34;3.92;;;2.00;;
58528;SDS011;44322;52.968;5.816;2022-09-02T06:12:00;3.00;;;2.50;;
58528;SDS011;44322;52.968;5.816;2022-09-02T06:14:29;2.45;;;2.25;;
58528;SDS011;44322;52.968;5.816;2022-09-02T06:16:56;4.70;;;2.55;;
58528;SDS011;44322;52.968;5.816;2022-09-02T06:19:29;3.30;;;2.47;;
58528;SDS011;44322;52.968;5.816;2022-09-02T06:21:58;4.05;;;2.50;;
58528;SDS011;44322;52.968;5.816;2022-09-02T06:24:26;3.25;;;2.40;;
58528;SDS011;44322;52.968;5.816;2022-09-02T06:26:54;3.40;;;2.20;;
58528;SDS011;44322;52.968;5.816;2022-09-02T06:29:22;3.30;;;2.10;;
58528;SDS011;44322;52.968;5.816;2022-09-02T06:31:49;4.45;;;2.25;;
58528;SDS011;44322;52.968;5.816;2022-09-02T06:34:17;2.97;;;2.20;;
58528;SDS011;44322;52.968;5.816;2022-09-02T06:36:46;2.63;;;1.92;;
58528;SDS011;44322;52.968;5.816;2022-09-02T06:39:18;2.25;;;2.03;;
58528;SDS011;44322;52.968;5.816;2022-09-02T06:41:46;3.20;;;2.00;;
58528;SDS011;44322;52.968;5.816;2022-09-02T06:44:14;4.25;;;2.08;;
58528;SDS011;44322;52.968;5.816;2022-09-02T06:46:43;2.85;;;2.03;;
58528;SDS011;44322;52.968;5.816;2022-09-02T06:49:12;3.70;;;2.13;;
58528;SDS011;44322;52.968;5.816;2022-09-02T06:51:44;2.30;;;2.10;;
58528;SDS011;44322;52.968;5.816;2022-09-02T06:54:14;3.25;;;1.90;;
58528;SDS011;44322;52.968;5.816;2022-09-02T06:56:43;4.50;;;1.90;;
58528;SDS011;44322;52.968;5.816;2022-09-02T06:59:10;3.95;;;1.92;;
58528;SDS011;44322;52.968;5.816;2022-09-02T07:01:40;3.83;;;2.15;;
58528;SDS011;44322;52.968;5.816;2022-09-02T07:04:07;1.90;;;1.80;;
58528;SDS011;44322;52.968;5.816;2022-09-02T07:06:52;2.97;;;1.63;;
58528;SDS011;44322;52.968;5.816;2022-09-02T07:09:23;3.80;;;1.83;;
58528;SDS011;44322;52.968;5.816;2022-09-02T07:11:59;4.93;;;1.73;;
58528;SDS011;44322;52.968;5.816;2022-09-02T07:14:28;3.42;;;1.70;;
58528;SDS011;44322;52.968;5.816;2022-09-02T07:16:55;2.10;;;1.67;;
58528;SDS011;44322;52.968;5.816;2022-09-02T07:19:28;2.00;;;1.67;;
58528;SDS011;44322;52.968;5.816;2022-09-02T07:21:54;2.70;;;2.00;;
58528;SDS011;44322;52.968;5.816;2022-09-02T07:24:21;3.88;;;1.70;;
58528;SDS011;44322;52.968;5.816;2022-09-02T07:26:54;3.13;;;1.50;;
58528;SDS011;44322;52.968;5.816;2022-09-02T07:29:20;5.25;;;2.17;;
58528;SDS011;44322;52.968;5.816;2022-09-02T07:31:46;2.33;;;1.70;;
58528;SDS011;44322;52.968;5.816;2022-09-02T07:34:17;1.48;;;1.38;;
58528;SDS011;44322;52.968;5.816;2022-09-02T07:36:47;6.35;;;1.80;;
58528;SDS011;44322;52.968;5.816;2022-09-02T07:39:17;2.85;;;1.50;;
58528;SDS011;44322;52.968;5.816;2022-09-02T07:41:45;2.60;;;1.85;;
58528;SDS011;44322;52.968;5.816;2022-09-02T07:44:13;1.70;;;1.60;;
58528;SDS011;44322;52.968;5.816;2022-09-02T07:46:42;4.07;;;1.77;;
58528;SDS011;44322;52.968;5.816;2022-09-02T07:49:09;2.47;;;1.50;;
58528;SDS011;44322;52.968;5.816;2022-09-02T07:51:37;2.42;;;1.65;;
58528;SDS011;44322;52.968;5.816;2022-09-02T07:54:05;2.95;;;1.40;;
58528;SDS011;44322;52.968;5.816;2022-09-02T07:56:34;3.38;;;1.50;;
58528;SDS011;44322;52.968;5.816;2022-09-02T07:59:00;3.97;;;1.83;;
58528;SDS011;44322;52.968;5.816;2022-09-02T08:01:26;4.15;;;1.85;;
58528;SDS011;44322;52.968;5.816;2022-09-02T08:03:52;4.22;;;1.88;;
58528;SDS011;44322;52.968;5.816;2022-09-02T08:06:23;1.85;;;1.63;;
58528;SDS011;44322;52.968;5.816;2022-09-02T08:08:51;4.13;;;1.75;;
58528;SDS011;44322;52.968;5.816;2022-09-02T08:11:18;3.45;;;1.60;;
58528;SDS011;44322;52.968;5.816;2022-09-02T08:13:44;2.88;;;1.50;;
58528;SDS011;44322;52.968;5.816;2022-09-02T08:16:10;3.70;;;2.13;;
58528;SDS011;44322;52.968;5.816;2022-09-02T08:18:36;2.20;;;1.50;;
58528;SDS011;44322;52.968;5.816;2022-09-02T08:21:02;1.70;;;1.60;;
58528;SDS011;44322;52.968;5.816;2022-09-02T08:23:28;1.52;;;1.42;;
58528;SDS011;44322;52.968;5.816;2022-09-02T08:25:54;3.60;;;1.60;;
58528;SDS011;44322;52.968;5.816;2022-09-02T08:28:22;2.53;;;1.55;;
58528;SDS011;44322;52.968;5.816;2022-09-02T08:30:48;2.33;;;1.45;;
58528;SDS011;44322;52.968;5.816;2022-09-02T08:33:14;2.83;;;1.65;;
58528;SDS011;44322;52.968;5.816;2022-09-02T08:35:40;2.60;;;1.55;;
58528;SDS011;44322;52.968;5.816;2022-09-02T08:38:06;3.63;;;1.70;;
58528;SDS011;44322;52.968;5.816;2022-09-02T08:40:36;2.10;;;1.25;;
58528;SDS011;44322;52.968;5.816;2022-09-02T08:43:47;3.15;;;1.60;;
58528;SDS011;44322;52.968;5.816;2022-09-02T08:46:01;3.17;;;1.40;;
58528;SDS011;44322;52.968;5.816;2022-09-02T08:51:22;4.60;;;1.52;;
58528;SDS011;44322;52.968;5.816;2022-09-02T08:54:25;3.10;;;1.30;;
58528;SDS011;44322;52.968;5.816;2022-09-02T08:57:21;3.08;;;1.67;;
58528;SDS011;44322;52.968;5.816;2022-09-02T08:59:55;2.05;;;1.05;;
58528;SDS011;44322;52.968;5.816;2022-09-02T09:02:34;1.42;;;1.13;;
58528;SDS011;44322;52.968;5.816;2022-09-02T09:08:29;3.13;;;1.45;;
58528;SDS011;44322;52.968;5.816;2022-09-02T09:11:04;2.13;;;1.00;;
58528;SDS011;44322;52.968;5.816;2022-09-02T09:19:11;2.83;;;1.30;;
58528;SDS011;44322;52.968;5.816;2022-09-02T09:21:39;3.17;;;1.38;;
58528;SDS011;44322;52.968;5.816;2022-09-02T09:26:51;2.25;;;1.20;;
58528;SDS011;44322;52.968;5.816;2022-09-02T09:29:18;3.22;;;1.20;;
58528;SDS011;44322;52.968;5.816;2022-09-02T09:31:45;2.28;;;1.45;;
58528;SDS011;44322;52.968;5.816;2022-09-02T09:34:17;3.72;;;1.10;;
58528;SDS011;44322;52.968;5.816;2022-09-02T09:36:44;2.13;;;1.10;;
58528;SDS011;44322;52.968;5.816;2022-09-02T09:41:58;3.33;;;1.05;;
58528;SDS011;44322;52.968;5.816;2022-09-02T09:47:07;2.67;;;1.00;;
58528;SDS011;44322;52.968;5.816;2022-09-02T09:49:35;2.08;;;1.05;;
58528;SDS011;44322;52.968;5.816;2022-09-02T09:52:03;1.30;;;1.20;;
58528;SDS011;44322;52.968;5.816;2022-09-02T09:54:29;1.27;;;0.85;;
58528;SDS011;44322;52.968;5.816;2022-09-02T09:56:55;4.22;;;0.93;;
58528;SDS011;44322;52.968;5.816;2022-09-02T10:04:52;5.65;;;1.00;;
58528;SDS011;44322;52.968;5.816;2022-09-02T10:10:23;1.67;;;0.90;;
58528;SDS011;44322;52.968;5.816;2022-09-02T10:12:51;2.47;;;1.00;;
58528;SDS011;44322;52.968;5.816;2022-09-02T10:15:42;0.98;;;0.80;;
58528;SDS011;44322;52.968;5.816;2022-09-02T10:18:12;1.35;;;0.88;;
58528;SDS011;44322;52.968;5.816;2022-09-02T10:21:06;1.90;;;1.15;;
58528;SDS011;44322;52.968;5.816;2022-09-02T10:26:47;2.10;;;1.10;;
58528;SDS011;44322;52.968;5.816;2022-09-02T10:29:24;1.83;;;0.80;;
58528;SDS011;44322;52.968;5.816;2022-09-02T10:40:25;1.73;;;0.80;;
58528;SDS011;44322;52.968;5.816;2022-09-02T10:43:05;2.28;;;1.10;;
58528;SDS011;44322;52.968;5.816;2022-09-02T10:45:44;3.45;;;0.82;;
58528;SDS011;44322;52.968;5.816;2022-09-02T10:56:26;1.23;;;1.13;;
58528;SDS011;44322;52.968;5.816;2022-09-02T10:59:16;1.88;;;0.90;;
58528;SDS011;44322;52.968;5.816;2022-09-02T11:01:47;2.70;;;1.35;;
58528;SDS011;44322;52.968;5.816;2022-09-02T11:06:55;3.63;;;1.20;;
58528;SDS011;44322;52.968;5.816;2022-09-02T11:09:26;2.08;;;0.90;;
58528;SDS011;44322;52.968;5.816;2022-09-02T11:12:03;2.50;;;1.05;;
58528;SDS011;44322;52.968;5.816;2022-09-02T11:14:35;1.67;;;1.02;;
58528;SDS011;44322;52.968;5.816;2022-09-02T11:22:39;1.15;;;0.80;;
58528;SDS011;44322;52.968;5.816;2022-09-02T11:30:57;2.63;;;1.00;;
58528;SDS011;44322;52.968;5.816;2022-09-02T11:36:24;3.97;;;1.40;;
58528;SDS011;44322;52.968;5.816;2022-09-02T11:38:57;4.13;;;1.10;;
58528;SDS011;44322;52.968;5.816;2022-09-02T11:58:29;3.50;;;1.02;;
58528;SDS011;44322;52.968;5.816;2022-09-02T12:03:26;1.77;;;1.00;;
58528;SDS011;44322;52.968;5.816;2022-09-02T12:06:09;1.58;;;1.10;;
58528;SDS011;44322;52.968;5.816;2022-09-02T12:11:07;4.78;;;1.48;;
58528;SDS011;44322;52.968;5.816;2022-09-02T12:13:54;4.97;;;2.00;;
58528;SDS011;44322;52.968;5.816;2022-09-02T12:21:32;2.13;;;1.00;;
58528;SDS011;44322;52.968;5.816;2022-09-02T12:24:01;3.47;;;1.10;;
58528;SDS011;44322;52.968;5.816;2022-09-02T12:31:49;1.85;;;1.10;;
58528;SDS011;44322;52.968;5.816;2022-09-02T12:37:48;2.17;;;1.10;;
58528;SDS011;44322;52.968;5.816;2022-09-02T12:40:18;3.00;;;1.30;;
58528;SDS011;44322;52.968;5.816;2022-09-02T12:42:54;1.67;;;0.93;;
58528;SDS011;44322;52.968;5.816;2022-09-02T12:45:27;3.58;;;1.50;;
58528;SDS011;44322;52.968;5.816;2022-09-02T12:48:06;2.30;;;1.58;;
58528;SDS011;44322;52.968;5.816;2022-09-02T12:58:52;6.10;;;2.10;;
58528;SDS011;44322;52.968;5.816;2022-09-02T13:10:13;2.97;;;1.60;;
58528;SDS011;44322;52.968;5.816;2022-09-02T13:24:00;4.18;;;2.13;;
58528;SDS011;44322;52.968;5.816;2022-09-02T13:29:54;3.60;;;1.50;;
58528;SDS011;44322;52.968;5.816;2022-09-02T13:32:30;1.15;;;1.05;;
58528;SDS011;44322;52.968;5.816;2022-09-02T13:34:59;3.95;;;1.35;;
58528;SDS011;44322;52.968;5.816;2022-09-02T13:40:18;2.22;;;1.30;;
58528;SDS011;44322;52.968;5.816;2022-09-02T13:42:58;1.40;;;1.30;;
58528;SDS011;44322;52.968;5.816;2022-09-02T13:45:45;2.05;;;1.33;;
58528;SDS011;44322;52.968;5.816;2022-09-02T13:48:20;3.63;;;1.70;;
58528;SDS011;44322;52.968;5.816;2022-09-02T13:51:06;1.40;;;1.30;;
58528;SDS011;44322;52.968;5.816;2022-09-02T13:53:41;3.67;;;1.83;;
58528;SDS011;44322;52.968;5.816;2022-09-02T13:56:22;2.22;;;1.33;;
58528;SDS011;44322;52.968;5.816;2022-09-02T14:03:08;2.50;;;1.65;;
58528;SDS011;44322;52.968;5.816;2022-09-02T14:05:40;1.95;;;1.40;;
58528;SDS011;44322;52.968;5.816;2022-09-02T14:08:24;4.18;;;1.50;;
58528;SDS011;44322;52.968;5.816;2022-09-02T14:10:53;3.13;;;1.60;;
58528;SDS011;44322;52.968;5.816;2022-09-02T14:13:20;4.63;;;1.40;;
58528;SDS011;44322;52.968;5.816;2022-09-02T14:15:47;1.92;;;1.58;;
58528;SDS011;44322;52.968;5.816;2022-09-02T14:18:14;2.40;;;1.37;;
58528;SDS011;44322;52.968;5.816;2022-09-02T14:23:46;2.00;;;1.40;;
58528;SDS011;44322;52.968;5.816;2022-09-02T14:26:49;3.90;;;1.58;;
58528;SDS011;44322;52.968;5.816;2022-09-02T14:29:11;3.90;;;1.73;;
58528;SDS011;44322;52.968;5.816;2022-09-02T14:31:39;3.47;;;1.40;;
58528;SDS011;44322;52.968;5.816;2022-09-02T14:36:58;2.72;;;1.38;;
58528;SDS011;44322;52.968;5.816;2022-09-02T14:39:24;3.90;;;1.52;;
58528;SDS011;44322;52.968;5.816;2022-09-02T14:41:54;2.75;;;1.65;;
58528;SDS011;44322;52.968;5.816;2022-09-02T14:46:57;3.45;;;1.42;;
58528;SDS011;44322;52.968;5.816;2022-09-02T14:49:30;1.73;;;1.60;;
58528;SDS011;44322;52.968;5.816;2022-09-02T14:52:04;2.38;;;1.50;;
58528;SDS011;44322;52.968;5.816;2022-09-02T14:54:43;2.03;;;1.40;;
58528;SDS011;44322;52.968;5.816;2022-09-02T14:57:27;1.60;;;1.48;;
58528;SDS011;44322;52.968;5.816;2022-09-02T14:59:58;3.70;;;1.60;;
58528;SDS011;44322;52.968;5.816;2022-09-02T15:04:50;1.88;;;1.48;;
58528;SDS011;44322;52.968;5.816;2022-09-02T15:07:20;2.03;;;1.60;;
58528;SDS011;44322;52.968;5.816;2022-09-02T15:09:47;2.45;;;1.45;;
58528;SDS011;44322;52.968;5.816;2022-09-02T15:12:17;2.30;;;1.45;;
58528;SDS011;44322;52.968;5.816;2022-09-02T15:14:49;2.42;;;1.63;;
58528;SDS011;44322;52.968;5.816;2022-09-02T15:17:16;5.18;;;1.80;;
58528;SDS011;44322;52.968;5.816;2022-09-02T15:19:42;3.93;;;1.60;;
58528;SDS011;44322;52.968;5.816;2022-09-02T15:22:08;1.42;;;1.33;;
58528;SDS011;44322;52.968;5.816;2022-09-02T15:24:47;1.70;;;1.50;;
58528;SDS011;44322;52.968;5.816;2022-09-02T15:27:15;3.50;;;1.40;;
58528;SDS011;44322;52.968;5.816;2022-09-02T15:29:41;2.67;;;1.40;;
58528;SDS011;44322;52.968;5.816;2022-09-02T15:32:11;1.88;;;1.58;;
58528;SDS011;44322;52.968;5.816;2022-09-02T15:34:37;4.43;;;2.08;;
58528;SDS011;44322;52.968;5.816;2022-09-02T15:37:03;1.75;;;1.65;;
58528;SDS011;44322;52.968;5.816;2022-09-02T15:39:29;1.70;;;1.25;;
58528;SDS011;44322;52.968;5.816;2022-09-02T15:41:55;1.75;;;1.35;;
58528;SDS011;44322;52.968;5.816;2022-09-02T15:44:24;2.67;;;1.50;;
58528;SDS011;44322;52.968;5.816;2022-09-02T15:46:51;1.83;;;1.40;;
58528;SDS011;44322;52.968;5.816;2022-09-02T15:51:44;1.67;;;1.40;;
58528;SDS011;44322;52.968;5.816;2022-09-02T15:54:12;2.63;;;1.60;;
58528;SDS011;44322;52.968;5.816;2022-09-02T15:56:40;3.67;;;1.67;;
58528;SDS011;44322;52.968;5.816;2022-09-02T15:59:08;4.40;;;1.58;;
58528;SDS011;44322;52.968;5.816;2022-09-02T16:01:37;2.67;;;1.50;;
58528;SDS011;44322;52.968;5.816;2022-09-02T16:04:06;1.88;;;1.65;;
58528;SDS011;44322;52.968;5.816;2022-09-02T16:06:32;1.60;;;1.50;;
58528;SDS011;44322;52.968;5.816;2022-09-02T16:09:00;1.42;;;1.33;;
58528;SDS011;44322;52.968;5.816;2022-09-02T16:11:26;4.43;;;1.60;;
58528;SDS011;44322;52.968;5.816;2022-09-02T16:13:52;2.88;;;1.52;;
58528;SDS011;44322;52.968;5.816;2022-09-02T16:16:18;2.63;;;1.50;;
58528;SDS011;44322;52.968;5.816;2022-09-02T16:18:48;1.80;;;1.55;;
58528;SDS011;44322;52.968;5.816;2022-09-02T16:21:18;2.92;;;1.52;;
58528;SDS011;44322;52.968;5.816;2022-09-02T16:23:45;3.67;;;1.63;;
58528;SDS011;44322;52.968;5.816;2022-09-02T16:26:20;2.55;;;1.70;;
58528;SDS011;44322;52.968;5.816;2022-09-02T16:28:48;2.10;;;1.42;;
58528;SDS011;44322;52.968;5.816;2022-09-02T16:33:42;3.20;;;1.60;;
58528;SDS011;44322;52.968;5.816;2022-09-02T16:36:09;2.75;;;1.60;;
58528;SDS011;44322;52.968;5.816;2022-09-02T16:38:36;4.65;;;1.70;;
58528;SDS011;44322;52.968;5.816;2022-09-02T16:41:02;1.98;;;1.63;;
58528;SDS011;44322;52.968;5.816;2022-09-02T16:43:31;2.50;;;1.73;;
58528;SDS011;44322;52.968;5.816;2022-09-02T16:45:59;2.20;;;1.70;;
58528;SDS011;44322;52.968;5.816;2022-09-02T16:48:28;2.65;;;1.50;;
58528;SDS011;44322;52.968;5.816;2022-09-02T16:51:00;2.15;;;1.60;;
58528;SDS011;44322;52.968;5.816;2022-09-02T16:53:27;4.90;;;1.70;;
58528;SDS011;44322;52.968;5.816;2022-09-02T16:55:53;3.22;;;1.80;;
58528;SDS011;44322;52.968;5.816;2022-09-02T16:58:19;3.33;;;1.80;;
58528;SDS011;44322;52.968;5.816;2022-09-02T17:00:45;3.33;;;1.50;;
58528;SDS011;44322;52.968;5.816;2022-09-02T17:03:14;2.47;;;1.65;;
58528;SDS011;44322;52.968;5.816;2022-09-02T17:05:46;4.43;;;1.70;;
58528;SDS011;44322;52.968;5.816;2022-09-02T17:08:13;2.67;;;1.85;;
58528;SDS011;44322;52.968;5.816;2022-09-02T17:10:41;2.67;;;1.60;;
58528;SDS011;44322;52.968;5.816;2022-09-02T17:13:08;2.42;;;1.52;;
58528;SDS011;44322;52.968;5.816;2022-09-02T17:15:34;3.70;;;1.63;;
58528;SDS011;44322;52.968;5.816;2022-09-02T17:18:02;4.22;;;1.60;;
58528;SDS011;44322;52.968;5.816;2022-09-02T17:20:28;2.00;;;1.50;;
58528;SDS011;44322;52.968;5.816;2022-09-02T17:22:54;2.60;;;1.40;;
58528;SDS011;44322;52.968;5.816;2022-09-02T17:25:20;2.58;;;1.50;;
58528;SDS011;44322;52.968;5.816;2022-09-02T17:27:46;7.15;;;1.80;;
58528;SDS011;44322;52.968;5.816;2022-09-02T17:30:13;2.15;;;1.70;;
58528;SDS011;44322;52.968;5.816;2022-09-02T17:32:39;2.55;;;1.63;;
58528;SDS011;44322;52.968;5.816;2022-09-02T17:35:07;1.65;;;1.55;;
58528;SDS011;44322;52.968;5.816;2022-09-02T17:37:34;1.80;;;1.70;;
58528;SDS011;44322;52.968;5.816;2022-09-02T17:40:03;1.75;;;1.42;;
58528;SDS011;44322;52.968;5.816;2022-09-02T17:42:31;1.65;;;1.50;;
58528;SDS011;44322;52.968;5.816;2022-09-02T17:45:25;3.20;;;1.60;;
58528;SDS011;44322;52.968;5.816;2022-09-02T17:47:51;6.47;;;1.95;;
58528;SDS011;44322;52.968;5.816;2022-09-02T17:50:17;3.08;;;1.80;;
58528;SDS011;44322;52.968;5.816;2022-09-02T17:52:43;2.17;;;1.50;;